Latest Weather Observations for Argyle

IDD60801

Issued at 8:21 am CST Wednesday 19 June 2019 (issued every 10 minutes, with the page automatically refreshed every 10 minutes)

About weather observations | Map of weather stations | Latest weather observations for NT | Other Formats
Station Details ID: 002064 Name: ARGYLE AERODROME Lat: -16.64 Lon: 128.45 Height: 164.0 m
Data from the previous 72 hours. | See also: Recent months at Argyle
Date/Time
CST
Temp
°C
App
Temp
°C
Dew
Point
°C
Rel
Hum
%
Delta-T
°C
Wind Press
QNH
hPa
Press
MSL
hPa
Rain since
9am
mm
Dir  Spd
km/h
Gust
km/h
Spd
kts
Gust
kts
19/08:00am 20.0 17.2 1.9 30 8.4 E 6 9 3 5 1019.6 1018.9 0.0
19/07:30am 19.1 16.2 1.6 31 8.0 ENE 6 9 3 5 1019.1 1018.4 0.0
19/07:00am 19.8 16.8 1.7 30 8.3 ENE 7 11 4 6 1018.8 1018.1 0.0
19/06:30am 20.8 15.9 2.1 29 8.7 ENE 17 26 9 14 1018.2 1017.6 0.0
19/06:00am 19.8 16.8 3.9 35 7.6 NE 9 11 5 6 1018.1 1017.5 0.0
19/05:30am 19.7 17.2 3.8 35 7.6 NW 6 7 3 4 1017.9 1017.3 0.0
19/05:00am 20.6 17.9 3.8 33 8.1 NW 7 9 4 5 1017.7 1017.1 0.0
19/04:30am 21.6 19.0 4.2 32 8.5 NNE 7 9 4 5 1017.3 1016.7 0.0
19/04:00am 21.2 18.5 3.9 32 8.4 NNE 7 7 4 4 1017.3 1016.7 0.0
19/03:30am 20.8 18.7 4.0 33 8.1 N 4 7 2 4 1017.3 1016.7 0.0
19/03:00am 20.7 18.3 4.3 34 8.0 W 6 7 3 4 1017.2 1016.6 0.0
19/02:30am 20.8 19.6 4.4 34 8.0 CALM 0 0 0 0 1017.0 1016.4 0.0
19/02:00am 20.5 19.3 4.5 35 7.8 CALM 0 0 0 0 1017.1 1016.5 0.0
19/01:30am 22.0 20.0 4.6 32 8.6 ESE 4 9 2 5 1017.1 1016.5 0.0
19/01:00am 21.4 20.3 4.9 34 8.2 CALM 0 0 0 0 1017.1 1016.5 0.0
19/12:30am 21.3 20.2 5.2 35 8.0 CALM 0 7 0 4 1017.2 1016.6 0.0
19/12:00am 22.1 19.9 5.1 33 8.5 ESE 6 9 3 5 1017.3 1016.7 0.0
 
Date/Time
CST
Temp
°C
App
Temp
°C
Dew
Point
°C
Rel
Hum
%
Delta-T
°C
Wind Press
QNH
hPa
Press
MSL
hPa
Rain since
9am
mm
Dir  Spd
km/h
Gust
km/h
Spd
kts
Gust
kts
18/11:30pm 21.8 18.9 4.8 33 8.4 E 9 13 5 7 1017.3 1016.7 0.0
18/11:00pm 22.7 20.3 5.2 32 8.8 ESE 7 11 4 6 1017.4 1016.8 0.0
18/10:30pm 23.6 21.0 6.0 32 9.0 SE 9 9 5 5 1017.3 1016.7 0.0
18/10:00pm 23.5 20.9 5.9 32 9.0 ESE 9 9 5 5 1017.1 1016.5 0.0
18/09:30pm 23.8 21.2 6.1 32 9.1 ESE 9 11 5 6 1016.8 1016.2 0.0
18/09:00pm 24.3 21.8 6.6 32 9.2 E 9 13 5 7 1016.7 1016.1 0.0
18/08:30pm 24.9 22.4 6.6 31 9.6 E 9 11 5 6 1016.3 1015.7 0.0
18/08:00pm 25.7 23.4 7.3 31 9.8 E 9 11 5 6 1016.1 1015.4 0.0
18/07:30pm 26.5 24.6 7.5 30 10.2 E 7 9 4 5 1015.7 1015.0 0.0
18/07:00pm 27.2 24.8 7.1 28 10.7 ENE 9 11 5 6 1015.3 1014.6 0.0
18/06:30pm 28.5 26.1 7.1 26 11.5 NE 9 11 5 6 1014.9 1014.2 0.0
18/06:00pm 30.1 27.8 7.3 24 12.4 ENE 9 15 5 8 1014.5 1013.8 0.0
18/05:30pm 30.8 27.7 7.3 23 12.8 ENE 13 19 7 10 1014.3 1013.6 0.0
18/05:00pm 30.9 27.8 7.4 23 12.9 NE 13 20 7 11 1014.1 1013.4 0.0
18/04:30pm 31.3 28.7 7.7 23 13.0 E 11 20 6 11 1014.1 1013.4 0.0
18/04:00pm 30.9 28.4 8.0 24 12.7 ENE 11 22 6 12 1014.2 1013.5 0.0
18/03:30pm 31.1 28.6 8.2 24 12.7 ENE 11 26 6 14 1014.2 1013.5 0.0
18/03:00pm 31.0 28.1 8.1 24 12.7 NE 13 24 7 13 1014.4 1013.7 0.0
18/02:30pm 31.1 27.6 8.8 25 12.5 NNE 17 24 9 13 1014.8 1014.1 0.0
18/02:00pm 30.0 26.3 7.8 25 12.2 NE 17 30 9 16 1015.3 1014.6 0.0
18/01:30pm 30.2 26.7 8.6 26 12.0 NNE 17 26 9 14 1015.9 1015.2 0.0
18/01:00pm 29.8 25.9 8.8 27 11.7 NE 19 28 10 15 1016.5 1015.9 0.0
18/12:30pm 29.4 25.8 8.5 27 11.6 NNE 17 26 9 14 1017.0 1016.4 0.0
18/12:00pm 29.5 25.9 8.5 27 11.6 NE 17 28 9 15 1017.5 1016.9 0.0
18/11:30am 28.9 25.6 8.0 27 11.4 ENE 15 24 8 13 1018.0 1017.4 0.0
18/11:00am 28.7 25.1 8.4 28 11.2 ENE 17 32 9 17 1018.4 1017.7 0.0
18/10:30am 27.4 24.0 7.8 29 10.6 E 15 20 8 11 1018.7 1018.0 0.0
18/10:00am 27.2 24.2 7.6 29 10.6 ESE 13 20 7 11 1018.9 1018.2 0.0
18/09:30am 26.1 23.0 7.2 30 10.0 ESE 13 20 7 11 1018.7 1018.0 0.0
18/09:00am 25.8 23.6 7.9 32 9.6 ESE 9 13 5 7 1018.5 1017.8 0.0
18/08:30am 24.6 22.9 7.7 34 9.0 SE 6 7 3 4 1018.1 1017.5 0.0
18/08:00am 24.0 22.3 8.4 37 8.4 ESE 7 11 4 6 1017.7 1017.1 0.0
18/07:30am 23.4 21.8 8.7 39 7.9 ENE 7 11 4 6 1017.5 1016.9 0.0
18/07:00am 22.7 21.9 9.8 44 7.1 WSW 4 6 2 3 1017.2 1016.6 0.0
18/06:30am 22.9 22.8 9.3 42 7.4 CALM 0 7 0 4 1016.6 1016.0 0.0
18/06:00am 23.6 23.1 9.2 40 7.8 NNE 2 7 1 4 1016.4 1015.8 0.0
18/05:30am 24.6 22.5 8.1 35 8.8 ENE 9 15 5 8 1016.4 1015.8 0.0
18/05:00am 24.5 22.7 9.3 38 8.3 N 9 13 5 7 1016.3 1015.7 0.0
18/04:30am 24.6 22.7 9.0 37 8.5 ENE 9 13 5 7 1016.2 1015.6 0.0
18/04:00am 25.0 23.1 8.9 36 8.8 ENE 9 11 5 6 1016.2 1015.6 0.0
18/03:30am 25.8 23.6 9.2 35 9.1 NE 11 13 6 7 1016.3 1015.7 0.0
18/03:00am 26.3 26.1 9.2 34 9.4 CALM 0 7 0 4 1016.4 1015.8 0.0
18/02:30am 27.0 25.2 9.4 33 9.8 ENE 9 13 5 7 1016.3 1015.7 0.0
18/02:00am 27.2 24.8 10.0 34 9.7 ENE 13 19 7 10 1016.3 1015.7 0.0
18/01:30am 26.4 26.4 11.3 39 8.6 ESE 2 9 1 5 1016.5 1015.9 0.0
18/01:00am 26.6 27.0 11.1 38 8.8 CALM 0 6 0 3 1016.4 1015.8 0.0
18/12:30am 26.3 25.3 10.9 38 8.7 ESE 7 9 4 5 1016.2 1015.6 0.0
18/12:00am 27.5 26.6 10.7 35 9.6 NNE 6 6 3 3 1016.2 1015.6 0.0
 
Date/Time
CST
Temp
°C
App
Temp
°C
Dew
Point
°C
Rel
Hum
%
Delta-T
°C
Wind Press
QNH
hPa
Press
MSL
hPa
Rain since
9am
mm
Dir  Spd
km/h
Gust
km/h
Spd
kts
Gust
kts
17/11:30pm 28.0 27.1 10.7 34 9.9 NNW 6 7 3 4 1016.3 1015.7 0.0
17/11:00pm 28.1 28.2 10.3 33 10.1 CALM 0 0 0 0 1016.3 1015.7 0.0
17/10:30pm 28.3 27.4 10.5 33 10.1 WSW 6 6 3 3 1016.2 1015.6 0.0
17/10:00pm 28.4 27.3 10.6 33 10.2 W 7 7 4 4 1016.0 1015.3 0.0
17/09:30pm 28.2 27.2 10.4 33 10.1 WNW 6 7 3 4 1016.0 1015.3 0.0
17/09:00pm 28.5 27.5 10.2 32 10.4 NNE 6 9 3 5 1015.9 1015.2 0.0
17/08:30pm 28.8 27.7 10.5 32 10.4 NNE 7 9 4 5 1015.6 1014.9 0.0
17/08:00pm 29.1 27.6 10.7 32 10.5 NNE 9 11 5 6 1015.2 1014.5 0.0
17/07:30pm 29.1 27.6 10.7 32 10.5 NNE 9 11 5 6 1014.9 1014.2 0.0
17/07:00pm 29.4 27.9 10.5 31 10.8 NNE 9 11 5 6 1014.5 1013.8 0.0
17/06:30pm 30.3 28.7 10.3 29 11.5 NNE 9 13 5 7 1014.2 1013.5 0.0
17/06:00pm 31.5 29.9 10.2 27 12.2 NE 9 11 5 6 1014.0 1013.3 0.0
17/05:30pm 32.1 30.7 10.8 27 12.4 NE 9 13 5 7 1013.7 1013.0 0.0
17/05:00pm 32.2 30.6 10.3 26 12.7 ENE 9 19 5 10 1013.6 1012.9 0.0
17/04:30pm 32.1 30.7 10.8 27 12.4 NNE 9 20 5 11 1013.5 1012.8 0.0
17/04:00pm 32.0 30.2 10.7 27 12.4 NE 11 19 6 10 1013.7 1013.0 0.0
17/03:30pm 32.4 30.6 11.0 27 12.5 NNE 11 20 6 11 1013.7 1013.0 0.0
17/03:00pm 32.7 30.6 11.3 27 12.6 NE 13 20 7 11 1014.1 1013.4 0.0
17/02:30pm 31.6 28.1 10.3 27 12.3 NNE 19 28 10 15 1014.4 1013.7 0.0
17/02:00pm 31.6 28.7 10.9 28 12.0 NE 17 28 9 15 1014.8 1014.1 0.0
17/01:30pm 31.4 28.0 11.2 29 11.8 NNE 20 32 11 17 1015.3 1014.6 0.0
17/01:00pm 31.7 28.6 11.5 29 11.9 NE 19 30 10 16 1015.9 1015.2 0.0
17/12:30pm 31.1 28.0 11.5 30 11.5 NE 19 26 10 14 1016.5 1015.9 0.0
17/12:00pm 31.1 28.3 11.5 30 11.5 ENE 17 22 9 12 1016.8 1016.2 0.0
17/11:30am 30.2 27.4 11.2 31 11.0 ENE 17 28 9 15 1017.2 1016.6 0.0
17/11:00am 29.8 27.0 9.9 29 11.3 NE 15 28 8 15 1017.5 1016.9 0.0
17/10:30am 29.1 25.9 9.8 30 10.9 NE 17 28 9 15 1017.7 1017.1 0.0
17/10:00am 28.4 26.2 9.2 30 10.7 ENE 11 20 6 11 1017.9 1017.3 0.0
17/09:30am 27.7 25.8 9.0 31 10.3 ESE 9 13 5 7 1017.8 1017.2 0.0
17/09:00am 27.1 25.7 9.5 33 9.8 ESE 7 9 4 5 1017.5 1016.9 0.0
17/08:30am 26.1 25.3 11.1 39 8.5 SE 6 7 3 4 1017.3 1016.7 0.0
17/08:00am 25.0 24.5 12.2 44 7.4 NNE 6 7 3 4 1017.0 1016.4 0.0
17/07:30am 24.7 23.8 11.3 43 7.6 N 7 9 4 5 1016.6 1016.0 0.0
17/07:00am 23.9 23.2 11.3 45 7.1 ENE 6 7 3 4 1016.2 1015.6 0.0
17/06:30am 25.1 24.9 10.6 40 8.1 ENE 2 9 1 5 1015.9 1015.2 0.0
17/06:00am 24.8 23.9 11.4 43 7.6 SE 7 9 4 5 1015.4 1014.7 0.0
17/05:30am 25.0 24.8 12.9 47 7.1 SW 6 9 3 5 1015.2 1014.5 0.0
17/05:00am 23.9 23.6 12.8 49 6.4 W 6 7 3 4 1015.2 1014.5 0.0
17/04:30am 23.6 23.8 12.9 51 6.2 W 4 7 2 4 1014.9 1014.2 0.0
17/04:00am 24.4 25.4 13.3 50 6.5 CALM 0 0 0 0 1014.8 1014.1 0.0
17/03:30am 25.1 24.8 12.7 46 7.2 W 6 7 3 4 1014.7 1014.0 0.0
17/03:00am 25.1 24.5 12.3 45 7.4 W 7 9 4 5 1014.6 1013.9 0.0
17/02:30am 25.1 24.6 12.0 44 7.5 WSW 6 9 3 5 1014.7 1014.0 0.0
17/02:00am 25.6 25.2 12.4 43 7.7 W 6 7 3 4 1014.9 1014.2 0.0
17/01:30am 25.6 26.0 12.4 43 7.7 E 2 7 1 4 1014.9 1014.2 0.0
17/01:00am 25.6 24.6 12.4 43 7.7 ENE 9 11 5 6 1014.9 1014.2 0.0
17/12:30am 26.4 25.2 11.7 40 8.5 ENE 9 11 5 6 1014.8 1014.1 0.0
17/12:00am 26.9 26.2 11.4 38 8.9 W 6 9 3 5 1014.7 1014.0 0.0
 
Date/Time
CST
Temp
°C
App
Temp
°C
Dew
Point
°C
Rel
Hum
%
Delta-T
°C
Wind Press
QNH
hPa
Press
MSL
hPa
Rain since
9am
mm
Dir  Spd
km/h
Gust
km/h
Spd
kts
Gust
kts
16/11:30pm 26.6 25.5 11.9 40 8.5 W 9 9 5 5 1014.8 1014.1 0.0
16/11:00pm 27.5 26.8 11.9 38 9.1 NW 7 9 4 5 1014.9 1014.2 0.0
16/10:30pm 27.3 26.5 11.7 37 9.0 W 7 9 4 5 1015.0 1014.3 0.0
16/10:00pm 27.7 26.9 11.7 37 9.3 NW 7 9 4 5 1015.1 1014.4 0.0
16/09:30pm 28.6 28.0 11.6 34 9.9 WNW 6 7 3 4 1015.0 1014.3 0.0
16/09:00pm 29.6 29.0 11.6 33 10.5 N 6 9 3 5 1014.6 1013.9 0.0
16/08:30pm 30.2 28.8 12.1 32 10.7 NNE 11 13 6 7 1014.3 1013.6 0.0
16/08:00pm 30.1 28.7 12.1 33 10.6 NNE 11 13 6 7 1014.0 1013.3 0.0
16/07:30pm 30.0 28.8 11.5 32 10.8 NNE 9 13 5 7 1013.7 1013.0 0.0
16/07:00pm 30.3 28.9 10.8 30 11.3 NNE 9 11 5 6 1013.5 1012.8 0.0
16/06:30pm 31.4 30.7 10.2 27 12.2 NE 4 9 2 5 1013.3 1012.6 0.0
16/06:00pm 33.1 31.8 9.8 24 13.4 WNW 7 9 4 5 1013.0 1012.3 0.0
16/05:30pm 33.8 32.5 9.8 23 13.9 NW 7 13 4 7 1012.9 1012.2 0.0
16/05:00pm 33.7 32.0 9.7 23 13.8 SSW 9 13 5 7 1012.8 1012.1 0.0
16/04:30pm 33.6 31.8 9.6 23 13.8 SSE 9 17 5 9 1012.6 1011.9 0.0
16/04:00pm 33.6 31.5 9.6 23 13.8 NE 11 19 6 10 1012.7 1012.0 0.0
16/03:30pm 34.1 32.1 10.0 23 14.0 SE 11 26 6 14 1012.8 1012.1 0.0
16/03:00pm 33.6 31.2 10.2 24 13.6 ENE 13 24 7 13 1013.2 1012.5 0.0
16/02:30pm 33.2 30.9 10.5 25 13.2 NNE 13 24 7 13 1013.5 1012.8 0.0
16/02:00pm 33.7 32.7 10.9 25 13.4 NNE 7 22 4 12 1013.8 1013.1 0.0
16/01:30pm 33.6 31.6 11.5 26 13.1 N 13 20 7 11 1014.3 1013.6 0.0
16/01:00pm 32.8 31.1 12.4 29 12.2 NNE 13 24 7 13 1014.9 1014.2 0.0
16/12:30pm 32.8 30.5 11.9 28 12.4 N 15 20 8 11 1015.5 1014.8 0.0
16/12:00pm 31.5 30.6 11.3 29 11.8 NNE 7 15 4 8 1016.0 1015.3 0.0
16/11:30am 31.1 30.4 12.0 31 11.3 ESE 7 11 4 6 1016.4 1015.8 0.0
16/11:00am 30.3 28.9 10.8 30 11.3 SE 9 15 5 8 1016.6 1016.0 0.0
16/10:30am 29.5 27.6 9.1 28 11.4 SE 9 17 5 9 1016.8 1016.2 0.0
16/10:00am 28.7 26.5 7.9 27 11.4 S 9 13 5 7 1016.8 1016.2 0.0

Other formats

Comma delimited format used in spreadsheet applications
http://www.bom.gov.au/fwo/IDD60801/IDD60801.94217.axf

JavaScript Object Notation format (JSON) in row-major order
http://www.bom.gov.au/fwo/IDD60801/IDD60801.94217.json

Data quality

Most of these data are generated automatically and are frequently updated. Quality checks on data are not normally performed. It is possible for incorrect values to appear. Refer to information at About Latest Weather Observations and please check the disclaimer before using these data.